Time;durP1;ratioP1;P1;durP2;ratioP2;P2;SDS_P1;SDS_P2;PMS_P1;PMS_P2;Temp;Humidity;BMP_temperature;BMP_pressure;BME280_temperature;BME280_humidity;BME280_pressure;Samples;Min_cycle;Max_cycle;Signal;HPM_P1;HPM_P2
2022/08/24 00:01:40;;;;;;;3.92;2.85;;;;;;;19.73;62.39;101430.63;5068764;28;20515;-69
2022/08/24 00:04:07;;;;;;;6.57;3.33;;;;;;;19.75;62.57;101428.66;5087381;27;20050;-69
2022/08/24 00:06:34;;;;;;;10.95;4.13;;;;;;;19.82;62.31;101428.06;5086616;27;20124;-69
2022/08/24 00:09:00;;;;;;;7.82;3.80;;;;;;;19.88;61.77;101424.09;5088714;27;20464;-69
2022/08/24 00:11:27;;;;;;;4.45;3.00;;;;;;;19.89;61.38;101423.09;5094902;27;20392;-69
2022/08/24 00:13:54;;;;;;;8.52;3.45;;;;;;;19.62;62.11;101422.63;5099468;27;20093;-70
2022/08/24 00:16:20;;;;;;;8.45;3.55;;;;;;;19.37;62.75;101419.19;5089440;27;20086;-69
2022/08/24 00:18:47;;;;;;;4.88;3.15;;;;;;;19.31;62.81;101418.81;5087382;27;20407;-69
2022/08/24 00:21:17;;;;;;;6.05;3.10;;;;;;;19.24;62.82;101429.09;5084673;27;20044;-70
2022/08/24 00:23:45;;;;;;;7.50;3.30;;;;;;;19.26;63.33;101421.81;5084563;27;20049;-69
2022/08/24 00:26:11;;;;;;;5.90;3.45;;;;;;;19.33;63.08;101417.72;5065888;28;20131;-69
2022/08/24 00:28:38;;;;;;;5.07;3.40;;;;;;;19.42;62.57;101410.88;5059450;28;20049;-69
2022/08/24 00:31:05;;;;;;;4.35;3.50;;;;;;;19.36;63.19;101416.66;5067433;28;20045;-69
2022/08/24 00:33:32;;;;;;;4.93;3.28;;;;;;;19.04;63.40;101415.59;5064907;28;20484;-70
2022/08/24 00:35:59;;;;;;;9.00;3.08;;;;;;;18.88;63.90;101410.63;5065923;28;20047;-70
2022/08/24 00:38:26;;;;;;;7.50;3.80;;;;;;;19.00;64.13;101422.97;5067510;28;20492;-70
2022/08/24 00:40:53;;;;;;;5.47;3.42;;;;;;;19.14;64.10;101416.63;5066207;28;20045;-70
2022/08/24 00:43:22;;;;;;;5.53;3.70;;;;;;;19.24;63.58;101421.09;5080485;27;20048;-70
2022/08/24 00:45:55;;;;;;;5.88;3.90;;;;;;;19.20;63.93;101419.66;5088621;27;20535;-70
2022/08/24 00:48:27;;;;;;;6.57;3.65;;;;;;;19.08;63.34;101417.06;5081916;27;20044;-71
2022/08/24 00:50:58;;;;;;;6.70;3.95;;;;;;;19.06;63.58;101417.22;5082621;28;20102;-71
2022/08/24 00:53:28;;;;;;;8.63;4.20;;;;;;;18.74;65.35;101411.66;5073712;28;20458;-72
2022/08/24 00:55:58;;;;;;;5.70;4.10;;;;;;;18.65;65.38;101417.66;5065596;28;20040;-71
2022/08/24 00:58:29;;;;;;;7.75;3.97;;;;;;;18.65;65.89;101404.38;5059301;28;20099;-71
2022/08/24 01:00:59;;;;;;;7.07;4.80;;;;;;;18.44;66.43;101414.75;5067375;28;20109;-71
2022/08/24 01:03:26;;;;;;;8.75;4.43;;;;;;;18.20;67.97;101411.25;5076453;28;20066;-71
2022/08/24 01:05:54;;;;;;;4.90;4.10;;;;;;;18.54;67.31;101400.84;5086126;27;20059;-71
2022/08/24 01:08:22;;;;;;;6.45;4.55;;;;;;;18.48;66.99;101410.91;5081153;28;20071;-71
2022/08/24 01:10:54;;;;;;;9.55;4.40;;;;;;;18.63;66.78;101411.59;5084120;27;20040;-71
2022/08/24 01:13:21;;;;;;;;;;;;;;;18.58;66.47;101418.25;5086447;27;20056;-71
2022/08/24 01:15:52;;;;;;;6.05;4.07;;;;;;;18.64;65.93;101418.63;5087078;27;19956;-72
2022/08/24 01:21:10;;;;;;;8.43;4.78;;;;;;;18.68;66.05;101405.97;5085756;27;20137;-71
2022/08/24 01:23:41;;;;;;;7.53;4.47;;;;;;;18.65;66.42;101416.81;5073892;28;20065;-71
2022/08/24 01:26:11;;;;;;;6.32;4.53;;;;;;;18.56;66.29;101423.66;5073539;28;20497;-71
2022/08/24 01:28:40;;;;;;;10.15;5.10;;;;;;;18.70;66.33;101420.81;5082347;27;20044;-70
2022/08/24 01:31:06;;;;;;;6.75;4.53;;;;;;;18.75;65.72;101425.78;5086731;28;20047;-70
2022/08/24 01:33:33;;;;;;;6.63;5.15;;;;;;;18.76;65.72;101424.84;5088051;28;20449;-70
2022/08/24 01:36:02;;;;;;;5.95;4.70;;;;;;;18.81;65.61;101430.63;5085645;27;20415;-71
2022/08/24 01:38:29;;;;;;;7.35;4.68;;;;;;;18.78;65.84;101423.75;5085769;27;20040;-71
2022/08/24 01:41:01;;;;;;;9.60;4.43;;;;;;;18.71;65.53;101417.19;5094726;27;20044;-71
2022/08/24 01:43:28;;;;;;;6.50;4.50;;;;;;;18.79;65.42;101421.94;5099855;27;20040;-72
2022/08/24 01:45:54;;;;;;;5.90;4.47;;;;;;;18.79;65.75;101417.47;5086360;27;20052;-72
2022/08/24 01:48:21;;;;;;;8.77;4.78;;;;;;;18.82;65.90;101425.22;5086878;27;20098;-72
2022/08/24 01:50:48;;;;;;;5.75;4.53;;;;;;;18.80;65.91;101426.31;5073202;27;20140;-72
2022/08/24 01:53:14;;;;;;;7.85;4.53;;;;;;;18.81;65.52;101434.13;5075751;27;20094;-72
2022/08/24 01:55:43;;;;;;;8.45;4.57;;;;;;;18.74;65.67;101427.59;5065628;28;20540;-72
2022/08/24 01:58:11;;;;;;;7.65;5.00;;;;;;;18.59;66.13;101435.88;5062167;28;20044;-71
2022/08/24 02:00:37;;;;;;;8.82;5.13;;;;;;;18.45;67.15;101443.00;5068202;28;20041;-72
2022/08/24 02:03:04;;;;;;;7.63;5.25;;;;;;;18.59;66.58;101441.19;5077194;28;20040;-71
2022/08/24 02:05:31;;;;;;;8.25;5.57;;;;;;;18.60;66.80;101438.41;5093298;27;20112;-71
2022/08/24 02:07:57;;;;;;;10.20;5.50;;;;;;;18.62;66.30;101448.94;5092781;27;20039;-71
2022/08/24 02:10:24;;;;;;;11.20;5.18;;;;;;;18.58;66.11;101445.66;5085793;27;20048;-71
2022/08/24 02:12:57;;;;;;;7.80;5.80;;;;;;;18.57;66.46;101446.59;5105905;27;20060;-71
2022/08/24 02:15:27;;;;;;;11.35;5.28;;;;;;;18.52;66.79;101455.84;5106559;27;20112;-72
2022/08/24 02:17:54;;;;;;;8.50;5.93;;;;;;;18.44;67.20;101456.38;5104275;27;20092;-71
2022/08/24 02:20:21;;;;;;;8.70;5.70;;;;;;;18.47;66.97;101446.41;5106775;27;20544;-72
2022/08/24 02:22:48;;;;;;;9.18;5.22;;;;;;;18.40;66.43;101453.09;5094187;27;20492;-71
2022/08/24 02:25:14;;;;;;;16.70;5.47;;;;;;;18.48;65.39;101449.88;5064979;28;20045;-71
2022/08/24 02:27:41;;;;;;;7.70;4.60;;;;;;;18.37;66.07;101450.69;5065748;28;20450;-71
2022/08/24 02:30:09;;;;;;;5.30;4.32;;;;;;;18.41;65.72;101459.28;5063932;28;20045;-71
2022/08/24 02:32:37;;;;;;;6.97;5.25;;;;;;;18.24;65.98;101459.66;5069340;28;20036;-71
2022/08/24 02:35:03;;;;;;;6.60;4.43;;;;;;;18.20;65.23;101456.38;5067134;28;20048;-71
2022/08/24 02:37:30;;;;;;;10.00;5.15;;;;;;;18.20;64.95;101451.06;5085074;27;20862;-72
2022/08/24 02:39:56;;;;;;;7.05;4.82;;;;;;;18.16;65.43;101452.25;5087654;27;20104;-71
2022/08/24 02:42:22;;;;;;;9.05;4.75;;;;;;;17.97;65.47;101449.22;5097879;27;20097;-71
2022/08/24 02:44:49;;;;;;;8.18;4.80;;;;;;;17.98;66.00;101459.72;5084417;27;20518;-70
2022/08/24 02:47:16;;;;;;;6.75;4.90;;;;;;;17.93;66.71;101455.69;5075445;27;20522;-71
2022/08/24 02:49:44;;;;;;;7.78;5.30;;;;;;;17.59;67.75;101465.16;5063682;28;20048;-71
2022/08/24 02:52:11;;;;;;;10.30;5.45;;;;;;;17.61;67.75;101452.66;5075111;28;20095;-71
2022/08/24 02:54:38;;;;;;;10.07;5.93;;;;;;;17.68;67.80;101463.69;5082549;28;20043;-72
2022/08/24 02:57:05;;;;;;;7.45;5.68;;;;;;;17.85;67.13;101465.97;5062627;28;20134;-72
2022/08/24 02:59:31;;;;;;;12.13;6.10;;;;;;;17.69;67.65;101454.78;5087495;28;20529;-71
2022/08/24 03:01:57;;;;;;;9.43;6.13;;;;;;;17.61;67.79;101451.81;5063957;28;20049;-71
2022/08/24 03:04:24;;;;;;;8.88;5.32;;;;;;;17.65;67.91;101451.50;5076844;28;20411;-72
2022/08/24 03:06:52;;;;;;;8.52;5.85;;;;;;;17.56;67.75;101457.38;5087327;27;20127;-73
2022/08/24 03:09:19;;;;;;;6.70;5.18;;;;;;;17.50;68.00;101448.06;5064877;28;20585;-72
2022/08/24 03:11:45;;;;;;;13.77;5.70;;;;;;;17.52;68.68;101461.19;5066942;28;20400;-71
2022/08/24 03:14:13;;;;;;;9.50;5.55;;;;;;;17.40;69.12;101449.66;5065978;28;20094;-71
2022/08/24 03:16:39;;;;;;;8.35;5.95;;;;;;;17.10;70.58;101448.25;5066488;28;20051;-71
2022/08/24 03:19:06;;;;;;;9.80;6.15;;;;;;;16.98;70.84;101449.91;5090280;28;20458;-71
2022/08/24 03:21:32;;;;;;;9.55;6.40;;;;;;;17.11;71.32;101450.78;5080926;27;20045;-72
2022/08/24 03:24:00;;;;;;;9.95;6.72;;;;;;;17.26;71.24;101451.53;5109586;27;20043;-71
2022/08/24 03:26:27;;;;;;;10.60;6.38;;;;;;;17.36;68.63;101453.47;5113758;28;20073;-72
2022/08/24 03:28:53;;;;;;;9.70;6.07;;;;;;;17.31;69.24;101454.72;5115737;28;20032;-71
2022/08/24 03:31:20;;;;;;;8.60;6.18;;;;;;;17.21;70.00;101446.56;5115760;27;20105;-72
2022/08/24 03:33:46;;;;;;;9.60;6.38;;;;;;;17.17;71.10;101453.03;5117018;27;20032;-72
2022/08/24 03:36:12;;;;;;;11.43;6.28;;;;;;;17.14;71.08;101453.25;5098401;27;20048;-72
2022/08/24 03:38:39;;;;;;;12.27;6.90;;;;;;;17.31;70.30;101442.34;5094752;27;20093;-71
2022/08/24 03:41:07;;;;;;;8.82;6.40;;;;;;;17.34;70.06;101458.03;5093834;27;20040;-72
2022/08/24 03:43:45;;;;;;;13.55;6.03;;;;;;;17.37;69.23;101459.59;5099029;27;20066;-72
2022/08/24 03:46:13;;;;;;;8.10;6.13;;;;;;;17.41;69.04;101464.59;5088009;27;20101;-72
2022/08/24 03:48:43;;;;;;;9.93;5.55;;;;;;;17.40;68.20;101462.06;5092248;27;20035;-71
2022/08/24 03:51:11;;;;;;;9.23;6.47;;;;;;;17.40;68.78;101464.72;5092413;27;20537;-71
2022/08/24 03:53:39;;;;;;;9.23;6.53;;;;;;;17.34;68.96;101458.03;5075969;27;20049;-72
2022/08/24 03:56:07;;;;;;;11.20;6.47;;;;;;;17.16;70.66;101464.56;5074060;28;20050;-71
2022/08/24 03:58:35;;;;;;;7.20;6.50;;;;;;;16.96;71.34;101460.59;5091907;28;20402;-71
2022/08/24 04:01:01;;;;;;;8.55;6.80;;;;;;;16.83;72.38;101469.47;5086939;27;20068;-71
2022/08/24 04:03:28;;;;;;;9.75;7.45;;;;;;;16.43;74.48;101461.47;5092888;27;20048;-71
2022/08/24 04:05:54;;;;;;;10.82;7.22;;;;;;;16.51;74.72;101477.72;5094937;27;20089;-71
2022/08/24 04:08:20;;;;;;;10.05;7.60;;;;;;;16.58;74.63;101470.25;5087931;27;20048;-71
2022/08/24 04:10:47;;;;;;;9.30;6.85;;;;;;;16.76;74.07;101477.00;5073902;28;20040;-71
2022/08/24 04:13:16;;;;;;;15.95;7.22;;;;;;;16.88;73.27;101473.53;5079365;27;20057;-71
2022/08/24 04:15:43;;;;;;;8.73;6.55;;;;;;;16.88;72.71;101464.72;5074232;28;20534;-71
2022/08/24 04:18:10;;;;;;;10.85;6.63;;;;;;;16.70;73.23;101473.91;5073549;28;20458;-71
2022/08/24 04:20:41;;;;;;;8.32;6.53;;;;;;;16.85;73.00;101470.25;5069561;28;20051;-71
2022/08/24 04:23:08;;;;;;;10.18;7.05;;;;;;;17.03;72.19;101461.06;5090829;27;20047;-71
2022/08/24 04:25:42;;;;;;;11.40;7.65;;;;;;;17.14;71.53;101473.59;5072442;28;20120;-72
2022/08/24 04:28:09;;;;;;;10.48;7.55;;;;;;;17.16;71.87;101475.19;5070076;28;20555;-72
2022/08/24 04:30:40;;;;;;;10.75;7.07;;;;;;;17.22;71.50;101489.84;5070351;28;20040;-71
2022/08/24 04:33:07;;;;;;;10.07;7.55;;;;;;;17.24;71.59;101480.81;5072313;28;20097;-72
2022/08/24 04:35:37;;;;;;;10.25;7.50;;;;;;;17.30;71.38;101485.69;5066788;28;20048;-72
2022/08/24 04:38:03;;;;;;;11.63;7.45;;;;;;;17.27;71.39;101488.56;5068036;28;20577;-72
2022/08/24 04:40:30;;;;;;;14.00;7.13;;;;;;;17.14;71.47;101500.09;5068526;28;20045;-72
2022/08/24 04:42:57;;;;;;;9.65;7.20;;;;;;;17.16;71.38;101491.06;5067458;28;20113;-72
2022/08/24 04:45:24;;;;;;;11.73;7.70;;;;;;;17.17;72.17;101494.56;5067495;28;20076;-72
2022/08/24 04:47:52;;;;;;;9.82;7.07;;;;;;;17.26;71.74;101499.25;5068408;28;20044;-72
2022/08/24 04:50:18;;;;;;;13.32;7.45;;;;;;;17.34;72.16;101507.53;5066400;28;20048;-72
2022/08/24 04:52:45;;;;;;;13.30;7.70;;;;;;;17.32;72.42;101509.44;5059725;28;20394;-71
2022/08/24 04:55:11;;;;;;;11.38;7.68;;;;;;;17.42;72.14;101511.38;5079966;27;20056;-71
2022/08/24 04:57:38;;;;;;;8.88;7.70;;;;;;;17.52;71.65;101507.13;5086311;28;20415;-71
2022/08/24 05:00:08;;;;;;;13.95;8.15;;;;;;;17.70;71.53;101512.19;5065683;28;20094;-71
2022/08/24 05:02:34;;;;;;;10.85;7.75;;;;;;;17.72;72.28;101523.53;5086780;28;20047;-71
2022/08/24 05:05:02;;;;;;;12.70;8.82;;;;;;;17.76;72.27;101522.34;5086295;28;20443;-71
2022/08/24 05:07:29;;;;;;;12.38;8.23;;;;;;;17.89;72.17;101523.19;5086022;28;20044;-71
2022/08/24 05:09:55;;;;;;;9.93;7.75;;;;;;;18.04;71.92;101523.91;5086698;28;20064;-71
2022/08/24 05:12:21;;;;;;;11.48;8.10;;;;;;;18.14;72.23;101530.28;5083922;27;20053;-71
2022/08/24 05:14:48;;;;;;;13.43;8.77;;;;;;;18.40;71.57;101532.75;5076772;28;20132;-71
2022/08/24 05:17:14;;;;;;;11.80;8.95;;;;;;;18.66;71.08;101530.91;5088157;28;20097;-71
2022/08/24 05:19:40;;;;;;;13.68;8.50;;;;;;;18.70;71.40;101529.72;5084961;27;20064;-71
2022/08/24 05:22:08;;;;;;;15.52;8.15;;;;;;;18.81;71.26;101523.63;5086148;27;20109;-71
2022/08/24 05:24:34;;;;;;;12.52;8.43;;;;;;;18.94;71.07;101527.94;5087356;27;20568;-71
2022/08/24 05:27:01;;;;;;;9.98;7.78;;;;;;;19.38;70.28;101521.94;5080676;27;20066;-71
2022/08/24 05:29:27;;;;;;;12.93;8.63;;;;;;;19.86;68.09;101521.81;5086055;27;20047;-71
2022/08/24 05:31:53;;;;;;;8.10;7.00;;;;;;;20.13;67.01;101519.66;5087393;27;20066;-71
2022/08/24 05:34:20;;;;;;;9.85;7.72;;;;;;;20.33;66.29;101520.75;5076846;27;20047;-71
2022/08/24 05:36:46;;;;;;;11.70;6.97;;;;;;;20.44;67.07;101520.72;5086804;27;20516;-71
2022/08/24 05:39:14;;;;;;;8.00;7.20;;;;;;;20.59;66.14;101524.81;5086944;27;20411;-71
2022/08/24 05:41:43;;;;;;;9.07;7.20;;;;;;;21.02;65.34;101527.50;5084760;27;20415;-71
2022/08/24 05:44:09;;;;;;;9.35;7.20;;;;;;;21.28;64.79;101531.53;5083765;27;20567;-71
2022/08/24 05:46:36;;;;;;;11.48;7.53;;;;;;;21.34;63.77;101523.00;5086351;27;20048;-71
2022/08/24 05:49:03;;;;;;;13.82;7.97;;;;;;;21.86;62.75;101526.56;5083559;27;20565;-71
2022/08/24 05:51:30;;;;;;;12.07;7.63;;;;;;;21.67;63.39;101526.44;5085556;27;20093;-71
2022/08/24 05:53:58;;;;;;;10.80;7.45;;;;;;;21.80;64.13;101521.75;5083222;27;20488;-71
2022/08/24 05:56:26;;;;;;;10.23;7.32;;;;;;;22.17;62.47;101528.25;5075474;27;20411;-71
2022/08/24 05:58:52;;;;;;;10.88;7.95;;;;;;;22.66;61.94;101531.91;5085031;27;20422;-71
2022/08/24 06:01:21;;;;;;;11.20;8.10;;;;;;;22.83;61.49;101523.28;5085369;27;20408;-71
2022/08/24 06:03:49;;;;;;;14.20;7.53;;;;;;;23.33;59.22;101528.47;5085257;27;20048;-70
2022/08/24 06:06:16;;;;;;;10.00;7.53;;;;;;;23.60;58.81;101525.94;5085157;28;20576;-70
2022/08/24 06:08:45;;;;;;;11.25;7.03;;;;;;;23.51;59.57;101526.78;5084621;28;20044;-71
2022/08/24 06:11:11;;;;;;;12.05;6.93;;;;;;;23.89;57.78;101531.19;5083952;27;20052;-71
2022/08/24 06:13:39;;;;;;;10.38;7.30;;;;;;;23.08;61.09;101543.25;5085359;27;20044;-71
2022/08/24 06:16:07;;;;;;;9.57;7.10;;;;;;;23.80;59.16;101540.13;5085988;28;20051;-71
2022/08/24 06:18:35;;;;;;;8.98;7.22;;;;;;;23.83;59.33;101529.13;5074383;28;20052;-72
2022/08/24 06:21:05;;;;;;;9.70;7.60;;;;;;;24.48;57.14;101536.19;5082329;28;20070;-72
2022/08/24 06:23:31;;;;;;;10.18;6.90;;;;;;;24.64;58.05;101537.22;5077261;27;20040;-68
2022/08/24 06:28:44;;;;;;;11.70;7.40;;;;;;;24.66;57.38;101542.44;5077612;27;20515;-69
2022/08/24 06:31:10;;;;;;;9.75;6.22;;;;;;;25.45;56.51;101548.75;5080534;27;20442;-69
2022/08/24 06:33:37;;;;;;;8.20;6.80;;;;;;;24.50;58.93;101545.75;5084739;27;20040;-69
2022/08/24 06:36:03;;;;;;;9.48;6.07;;;;;;;24.75;58.79;101548.72;5085809;27;20048;-69
2022/08/24 06:38:30;;;;;;;9.27;6.88;;;;;;;25.40;58.10;101543.00;5084241;27;20059;-69
2022/08/24 06:40:56;;;;;;;7.78;6.40;;;;;;;25.79;56.37;101545.34;5084576;27;20047;-70
2022/08/24 06:43:23;;;;;;;10.65;6.78;;;;;;;26.13;55.44;101555.09;5084885;27;20097;-70
2022/08/24 06:45:52;;;;;;;9.43;5.97;;;;;;;26.38;54.81;101552.56;5084132;27;20040;-70
2022/08/24 06:48:18;;;;;;;12.05;6.85;;;;;;;26.43;53.85;101555.59;5085678;28;20044;-70
2022/08/24 06:50:45;;;;;;;10.68;6.28;;;;;;;26.71;55.20;101554.38;5084571;27;20462;-70
2022/08/24 06:53:13;;;;;;;8.55;5.50;;;;;;;27.28;53.93;101563.38;5060696;28;20060;-70
2022/08/24 06:55:44;;;;;;;9.70;5.80;;;;;;;27.64;52.11;101552.31;5064456;28;20048;-70
2022/08/24 06:58:10;;;;;;;10.70;5.22;;;;;;;27.87;50.72;101554.09;5066990;27;20396;-69
2022/08/24 07:00:37;;;;;;;9.15;5.78;;;;;;;27.72;52.07;101560.34;5085088;28;20117;-69
2022/08/24 07:03:05;;;;;;;13.20;5.70;;;;;;;26.87;55.05;101562.50;5083793;27;20040;-68
2022/08/24 07:05:31;;;;;;;9.52;5.85;;;;;;;27.22;52.39;101569.44;5083962;27;20055;-69
2022/08/24 07:07:58;;;;;;;10.13;5.43;;;;;;;27.03;53.93;101567.91;5084478;28;20040;-68
2022/08/24 07:10:24;;;;;;;7.78;5.25;;;;;;;27.67;51.49;101568.97;5083738;27;20570;-68
2022/08/24 07:12:51;;;;;;;10.07;4.53;;;;;;;28.01;51.38;101561.47;5082583;27;20040;-68
2022/08/24 07:15:18;;;;;;;8.63;4.90;;;;;;;28.26;49.43;101564.13;5086359;27;20044;-68
2022/08/24 07:17:44;;;;;;;10.82;5.38;;;;;;;27.78;52.67;101557.84;5084822;27;20500;-68
2022/08/24 07:20:12;;;;;;;8.48;5.05;;;;;;;27.37;54.47;101559.69;5085428;27;20066;-69
2022/08/24 07:22:39;;;;;;;7.90;4.85;;;;;;;27.94;51.36;101560.47;5085086;27;20039;-69
2022/08/24 07:25:07;;;;;;;11.40;4.78;;;;;;;27.34;52.82;101567.28;5080742;27;20036;-69
2022/08/24 07:27:33;;;;;;;9.07;4.78;;;;;;;27.17;52.15;101568.25;5082408;27;20113;-68
2022/08/24 07:29:59;;;;;;;10.15;4.90;;;;;;;26.93;53.05;101566.38;5067851;28;20044;-68
2022/08/24 07:32:27;;;;;;;9.93;5.20;;;;;;;27.40;52.29;101562.03;5083848;27;20124;-68
2022/08/24 07:34:54;;;;;;;7.75;5.30;;;;;;;28.37;50.76;101561.06;5084323;27;20089;-68
2022/08/24 07:37:21;;;;;;;7.70;4.55;;;;;;;29.03;47.59;101568.66;5068670;28;20102;-68
2022/08/24 07:39:48;;;;;;;9.07;5.07;;;;;;;29.60;46.87;101566.34;5063166;28;20041;-68
2022/08/24 07:42:14;;;;;;;6.20;4.43;;;;;;;29.64;48.33;101575.78;5063966;28;20106;-69
2022/08/24 07:44:40;;;;;;;6.95;4.32;;;;;;;29.39;47.20;101579.72;5064216;28;20129;-68
2022/08/24 07:47:07;;;;;;;10.18;4.43;;;;;;;30.13;46.97;101567.19;5063431;28;20141;-68
2022/08/24 07:49:33;;;;;;;10.57;4.10;;;;;;;29.82;46.31;101568.16;5064014;28;20067;-68
2022/08/24 07:51:59;;;;;;;7.97;4.35;;;;;;;30.08;45.48;101567.72;5062866;28;20041;-68
2022/08/24 07:54:28;;;;;;;13.63;4.18;;;;;;;29.73;46.90;101566.56;5063177;28;20048;-68
2022/08/24 07:56:55;;;;;;;8.13;4.07;;;;;;;29.08;47.65;101574.38;5064488;28;20040;-68
2022/08/24 07:59:21;;;;;;;9.90;4.25;;;;;;;28.69;47.57;101574.44;5054941;28;20055;-68
2022/08/24 08:01:49;;;;;;;10.57;4.82;;;;;;;28.76;48.07;101570.00;5063066;28;20105;-71
2022/08/24 08:04:20;;;;;;;8.15;4.78;;;;;;;29.51;47.05;101574.72;5063840;28;20056;-70
2022/08/24 08:06:47;;;;;;;8.20;4.07;;;;;;;30.30;49.81;101572.22;5084063;27;20064;-70
2022/08/24 08:09:13;;;;;;;8.38;4.07;;;;;;;30.94;45.42;101583.22;5085225;27;20044;-71
2022/08/24 08:11:41;;;;;;;10.90;4.22;;;;;;;31.44;44.73;101578.75;5075875;28;20633;-70
2022/08/24 08:14:07;;;;;;;9.23;4.30;;;;;;;31.35;45.49;101575.34;5068474;28;20493;-70
2022/08/24 08:16:33;;;;;;;6.45;4.00;;;;;;;31.36;42.92;101582.44;5083436;27;20052;-71
2022/08/24 08:19:00;;;;;;;8.00;4.28;;;;;;;31.47;41.25;101578.38;5086717;27;20048;-71
2022/08/24 08:24:16;;;;;;;7.78;3.70;;;;;;;32.41;39.91;101582.41;5057719;28;20090;-71
2022/08/24 08:26:45;;;;;;;8.45;4.03;;;;;;;32.80;41.29;101579.88;5088396;27;20496;-71
2022/08/24 08:29:12;;;;;;;9.25;3.58;;;;;;;32.34;40.16;101588.63;5086267;27;20527;-71
2022/08/24 08:31:39;;;;;;;5.93;4.15;;;;;;;33.23;37.95;101578.50;5082813;28;20039;-71
2022/08/24 08:34:06;;;;;;;11.55;4.30;;;;;;;32.76;40.96;101576.72;5087683;27;20495;-71
2022/08/24 08:36:34;;;;;;;7.78;3.47;;;;;;;33.26;37.65;101583.53;5074316;27;20060;-71
2022/08/24 08:39:00;;;;;;;7.53;3.25;;;;;;;32.44;40.52;101582.84;5073703;28;20462;-71
2022/08/24 08:42:02;;;;;;;9.50;4.00;;;;;;;31.90;39.91;101587.28;5084480;27;20044;-71
2022/08/24 08:44:44;;;;;;;19.50;4.07;;;;;;;31.81;40.57;101582.03;5054915;27;20140;-71
2022/08/24 08:47:22;;;;;;;10.27;3.70;;;;;;;32.46;41.07;101586.19;5077132;28;20044;-71
2022/08/24 08:50:02;;;;;;;6.60;3.75;;;;;;;32.55;41.75;101587.69;5087366;28;20070;-71
2022/08/24 08:52:52;;;;;;;7.50;3.90;;;;;;;32.65;39.79;101582.75;5071233;28;20070;-71
2022/08/24 08:55:28;;;;;;;5.97;3.08;;;;;;;32.98;40.11;101584.72;5075023;28;20058;-71
2022/08/24 08:58:10;;;;;;;12.40;3.30;;;;;;;33.16;38.76;101582.25;5088824;27;20061;-71
2022/08/24 09:00:52;;;;;;;7.88;3.20;;;;;;;33.03;39.47;101587.66;5095861;27;20439;-71
2022/08/24 09:03:31;;;;;;;6.85;3.13;;;;;;;33.17;39.07;101589.38;5085473;28;20097;-71
2022/08/24 09:06:13;;;;;;;6.40;2.72;;;;;;;33.91;34.83;101583.75;5085474;28;20048;-71
2022/08/24 09:08:56;;;;;;;5.22;2.42;;;;;;;34.41;35.75;101580.28;5074760;27;20041;-71
2022/08/24 09:11:31;;;;;;;5.68;2.88;;;;;;;32.51;35.95;101588.28;5074659;27;20048;-71
2022/08/24 09:14:32;;;;;;;6.72;2.90;;;;;;;31.55;39.11;101594.53;5078490;27;20051;-71
2022/08/24 09:17:11;;;;;;;6.60;2.90;;;;;;;32.13;43.24;101590.59;5075487;27;20032;-71
2022/08/24 09:19:49;;;;;;;8.75;3.28;;;;;;;32.25;37.86;101576.28;5085798;27;20044;-71
2022/08/24 09:22:18;;;;;;;6.47;2.80;;;;;;;31.90;39.53;101574.56;5078718;27;20044;-70
2022/08/24 09:25:09;;;;;;;7.75;2.88;;;;;;;32.24;37.92;101576.47;5065913;28;20066;-70
2022/08/24 09:27:46;;;;;;;8.68;3.20;;;;;;;32.44;35.13;101571.97;5085625;28;20449;-66
2022/08/24 09:30:15;;;;;;;4.32;2.78;;;;;;;32.35;35.48;101578.59;5065657;28;20111;-66
2022/08/24 09:32:59;;;;;;;9.50;3.40;;;;;;;31.19;41.22;101579.13;5079056;27;20076;-66
2022/08/24 09:35:32;;;;;;;5.28;3.10;;;;;;;31.07;39.33;101583.41;5068097;28;20130;-66
2022/08/24 09:38:07;;;;;;;8.35;3.30;;;;;;;31.62;38.37;101571.84;5064659;28;20063;-66
2022/08/24 09:40:39;;;;;;;6.22;3.30;;;;;;;32.21;37.41;101561.44;5064480;28;20040;-67
2022/08/24 09:43:37;;;;;;;6.38;3.15;;;;;;;32.30;36.83;101564.78;5064281;28;20044;-67
2022/08/24 09:46:39;;;;;;;6.30;3.10;;;;;;;32.03;36.52;101558.38;5086302;27;20044;-67
2022/08/24 09:49:27;;;;;;;6.72;3.72;;;;;;;30.81;38.42;101564.97;5064247;28;20217;-67
2022/08/24 09:52:18;;;;;;;6.80;3.20;;;;;;;31.10;41.04;101560.50;5078020;27;20044;-67
2022/08/24 09:55:04;;;;;;;8.18;3.63;;;;;;;32.44;40.04;101555.69;5071920;28;20411;-66
2022/08/24 09:57:46;;;;;;;6.00;3.08;;;;;;;33.31;37.18;101552.16;5065912;28;20163;-66
2022/08/24 10:00:14;;;;;;;;;;;;;;;34.00;34.04;101553.38;5091650;27;20052;-66
2022/08/24 10:02:55;;;;;;;6.63;2.95;;;;;;;34.09;37.19;101559.44;5085560;28;19931;-66
2022/08/24 10:05:35;;;;;;;4.83;2.83;;;;;;;34.29;34.72;101556.69;5075858;28;20086;-66
2022/08/24 10:08:15;;;;;;;8.65;3.45;;;;;;;34.18;34.11;101550.84;5085219;27;20120;-67
2022/08/24 10:10:54;;;;;;;5.53;2.70;;;;;;;34.80;32.59;101548.50;5077124;27;20048;-67
2022/08/24 10:13:32;;;;;;;7.68;3.00;;;;;;;34.94;32.27;101552.81;5086548;28;20125;-67
2022/08/24 10:16:16;;;;;;;8.15;3.30;;;;;;;34.53;31.37;101548.63;5055488;28;20040;-67
2022/08/24 10:18:56;;;;;;;10.10;3.13;;;;;;;34.20;32.99;101543.31;5062567;28;20469;-67
2022/08/24 10:21:39;;;;;;;7.27;3.10;;;;;;;34.04;32.76;101530.13;5058566;27;20536;-67
2022/08/24 10:24:28;;;;;;;4.97;3.20;;;;;;;34.34;33.76;101533.19;5061458;27;20071;-67
2022/08/24 10:27:08;;;;;;;6.07;3.33;;;;;;;33.83;31.62;101521.41;5077587;27;20127;-67
2022/08/24 10:29:55;;;;;;;8.88;2.92;;;;;;;34.03;33.15;101523.03;5063623;28;20048;-67
2022/08/24 10:32:38;;;;;;;6.47;3.13;;;;;;;34.32;33.49;101527.16;5075733;28;20048;-67
2022/08/24 10:35:12;;;;;;;6.70;2.95;;;;;;;34.65;33.96;101524.28;5084599;28;20109;-67
2022/08/24 10:39:39;;;;;;;5.90;3.10;;;;;;;33.78;31.76;101511.16;5083070;27;20066;-67
2022/08/24 10:40:53;;;;;;;5.78;2.92;;;;;;;34.39;32.85;101508.88;5081870;28;20035;-67
2022/08/24 10:43:41;;;;;;;6.07;2.50;;;;;;;34.39;32.34;101506.16;5085175;28;20048;-67
2022/08/24 10:46:48;;;;;;;6.95;2.75;;;;;;;34.25;30.53;101506.44;5077439;28;20040;-67
2022/08/24 10:49:53;;;;;;;4.40;2.33;;;;;;;33.51;30.41;101515.78;5054775;28;20052;-67
2022/08/24 10:52:52;;;;;;;6.15;2.45;;;;;;;33.34;30.47;101510.97;5064788;27;20048;-67
2022/08/24 10:55:22;;;;;;;5.60;3.15;;;;;;;33.80;30.82;101503.63;5073334;28;20093;-67
2022/08/24 10:58:06;;;;;;;6.22;2.70;;;;;;;33.85;28.72;101500.28;5064594;28;20105;-67
2022/08/24 11:00:33;;;;;;;5.68;2.75;;;;;;;33.85;28.40;101505.72;5070795;28;20125;-67
2022/08/24 11:03:10;;;;;;;4.72;2.20;;;;;;;33.91;28.40;101505.69;5076594;28;20048;-67
2022/08/24 11:05:42;;;;;;;5.97;2.28;;;;;;;33.55;29.70;101511.59;5085352;28;20067;-67
2022/08/24 11:08:19;;;;;;;14.65;2.67;;;;;;;34.05;28.17;101510.03;5084651;27;20051;-67
2022/08/24 11:11:02;;;;;;;6.18;2.35;;;;;;;34.33;32.16;101509.75;5082538;27;20044;-68
2022/08/24 11:13:28;;;;;;;5.32;2.20;;;;;;;34.04;27.58;101500.19;5082252;27;20048;-67
2022/08/24 11:15:58;;;;;;;8.70;2.33;;;;;;;33.58;29.20;101494.88;5084109;27;20487;-67
2022/08/24 11:18:25;;;;;;;2.83;1.77;;;;;;;33.71;31.02;101494.84;5085213;27;20079;-67
2022/08/24 11:20:54;;;;;;;7.15;2.10;;;;;;;34.35;27.68;101504.94;5082679;28;20048;-67
2022/08/24 11:23:23;;;;;;;2.95;1.70;;;;;;;34.65;26.21;101502.50;5083194;27;20491;-68
2022/08/24 11:25:57;;;;;;;2.63;1.70;;;;;;;34.92;28.10;101504.00;5045288;28;20051;-67
2022/08/24 11:28:31;;;;;;;10.68;1.98;;;;;;;34.69;29.52;101503.72;5065468;28;20092;-68
2022/08/24 11:30:58;;;;;;;4.20;1.70;;;;;;;35.02;26.97;101503.50;5079643;28;20525;-67
2022/08/24 11:33:29;;;;;;;3.60;1.70;;;;;;;34.76;27.14;101504.53;5083652;28;20128;-67
2022/08/24 11:35:56;;;;;;;3.92;1.90;;;;;;;35.31;28.58;101502.88;5083298;28;20044;-67
2022/08/24 11:38:27;;;;;;;5.38;1.88;;;;;;;35.37;24.23;101501.97;5084960;28;20449;-67
2022/08/24 11:41:00;;;;;;;4.22;1.75;;;;;;;34.97;26.57;101501.44;5082838;27;20131;-67
2022/08/24 11:43:38;;;;;;;4.95;1.60;;;;;;;34.20;26.66;101496.19;5084423;27;20465;-67
2022/08/24 11:46:17;;;;;;;3.22;1.75;;;;;;;34.65;27.95;101503.34;5087348;27;20070;-68
2022/08/24 11:48:56;;;;;;;2.92;1.50;;;;;;;34.70;25.56;101498.03;5088481;28;20067;-67